createdAt,value
2023-03-20T00:00:25.101Z,8.67
2023-03-20T00:05:54.707Z,8.62
2023-03-20T00:11:48.315Z,8.53
2023-03-20T00:17:18.376Z,8.49
2023-03-20T00:22:39.325Z,8.41
2023-03-20T00:27:59.985Z,8.35
2023-03-20T00:33:20.632Z,8.30
2023-03-20T00:38:43.178Z,8.44
2023-03-20T00:44:43.696Z,8.65
2023-03-20T00:50:15.273Z,8.67
2023-03-20T00:55:36.249Z,8.57
2023-03-20T01:00:57.298Z,8.60
2023-03-20T01:06:19.092Z,8.56
2023-03-20T01:11:41.600Z,8.38
2023-03-20T01:17:02.813Z,8.30
2023-03-20T01:22:23.582Z,8.29
2023-03-20T01:27:51.721Z,8.30
2023-03-20T01:33:18.513Z,8.38
2023-03-20T01:38:43.184Z,8.35
2023-03-20T01:44:19.756Z,8.45
2023-03-20T01:50:00.295Z,8.33
2023-03-20T01:55:22.212Z,8.13
2023-03-20T02:00:49.949Z,8.11
2023-03-20T02:06:13.093Z,8.11
2023-03-20T02:11:53.924Z,7.80
2023-03-20T02:17:15.749Z,7.73
2023-03-20T02:23:24.547Z,7.86
2023-03-20T02:29:09.388Z,7.78
2023-03-20T02:34:54.521Z,7.71
2023-03-20T02:40:25.226Z,7.61
2023-03-20T02:45:56.626Z,7.50
2023-03-20T02:51:22.496Z,7.46
2023-03-20T02:56:51.367Z,7.41
2023-03-20T03:02:18.771Z,7.24
2023-03-20T03:07:44.505Z,7.12
2023-03-20T03:13:11.419Z,7.05
2023-03-20T03:18:35.970Z,7.14
2023-03-20T03:23:57.532Z,7.13
2023-03-20T03:29:19.972Z,7.05
2023-03-20T03:34:40.936Z,6.93
2023-03-20T03:40:32.872Z,6.91
2023-03-20T03:46:00.518Z,6.95
2023-03-20T03:51:25.182Z,6.93
2023-03-20T03:57:10.340Z,6.79
2023-03-20T04:02:31.301Z,6.84
2023-03-20T04:07:58.177Z,6.80
2023-03-20T04:13:19.225Z,6.70
2023-03-20T04:18:41.325Z,6.55
2023-03-20T04:24:06.142Z,6.42
2023-03-20T04:29:27.066Z,6.36
2023-03-20T04:35:11.326Z,6.37
2023-03-20T04:40:47.578Z,6.49
2023-03-20T04:46:08.546Z,6.62
2023-03-20T04:51:29.066Z,6.68
2023-03-20T04:56:50.315Z,6.71
2023-03-20T05:02:15.150Z,6.67
2023-03-20T05:07:36.463Z,6.58
2023-03-20T05:13:06.077Z,6.64
2023-03-20T05:18:54.167Z,6.67
2023-03-20T05:24:33.567Z,6.79
2023-03-20T05:30:06.631Z,6.89
2023-03-20T05:35:50.658Z,7.01
2023-03-20T05:41:25.394Z,7.00
2023-03-20T05:47:12.424Z,7.06
2023-03-20T05:52:55.643Z,7.11
2023-03-20T05:58:37.248Z,7.23
2023-03-20T06:04:13.896Z,7.44
2023-03-20T06:09:59.912Z,7.56
2023-03-20T06:15:22.259Z,7.59
2023-03-20T06:20:54.241Z,7.61
2023-03-20T06:26:15.102Z,8.21
2023-03-20T06:31:49.995Z,8.13
2023-03-20T06:37:20.777Z,8.01
2023-03-20T06:42:42.739Z,7.86
2023-03-20T06:48:08.802Z,7.78
2023-03-20T06:53:29.471Z,7.72
2023-03-20T06:59:14.026Z,7.79
2023-03-20T07:04:35.205Z,7.97
2023-03-20T07:09:58.286Z,8.05
2023-03-20T07:15:20.182Z,8.13
2023-03-20T07:20:41.579Z,7.93
2023-03-20T07:26:03.500Z,7.75
2023-03-20T07:31:26.995Z,7.67
2023-03-20T07:36:56.784Z,7.58
2023-03-20T07:42:17.794Z,7.62
2023-03-20T07:47:46.279Z,7.62
2023-03-20T07:53:08.115Z,7.68
2023-03-20T07:58:28.863Z,7.72
2023-03-20T08:03:49.899Z,7.59
2023-03-20T08:09:11.295Z,7.77
2023-03-20T08:14:32.323Z,8.12
2023-03-20T08:19:52.993Z,9.10
2023-03-20T08:25:13.685Z,9.02
2023-03-20T08:30:34.664Z,8.98
2023-03-20T08:35:57.431Z,8.74
2023-03-20T08:41:19.114Z,8.72
2023-03-20T08:46:40.073Z,8.46
2023-03-20T08:52:01.039Z,8.34
2023-03-20T08:57:21.786Z,8.31
2023-03-20T09:02:43.336Z,8.38
2023-03-20T09:08:04.297Z,8.56
2023-03-20T09:13:27.877Z,8.54
2023-03-20T09:18:48.961Z,8.62
2023-03-20T09:24:09.570Z,8.80
2023-03-20T09:29:30.373Z,8.94
2023-03-20T09:34:51.378Z,9.15
2023-03-20T09:40:28.954Z,9.54
2023-03-20T09:46:10.081Z,9.87
2023-03-20T09:51:36.319Z,10.10
2023-03-20T09:56:57.799Z,10.28
2023-03-20T10:02:30.251Z,10.50
2023-03-20T10:07:54.608Z,10.81
2023-03-20T10:13:31.167Z,11.03
2023-03-20T10:19:04.993Z,11.18
2023-03-20T10:24:49.874Z,11.40
2023-03-20T10:30:14.014Z,11.59
2023-03-20T10:35:58.683Z,11.66
2023-03-20T10:41:23.298Z,11.84
2023-03-20T10:46:48.747Z,12.07
2023-03-20T10:52:40.765Z,12.33
2023-03-20T10:58:23.126Z,12.52
2023-03-20T11:03:44.247Z,12.79
2023-03-20T11:09:18.723Z,13.02
2023-03-20T11:14:39.957Z,12.91
2023-03-20T11:20:05.903Z,12.80
2023-03-20T11:25:33.108Z,12.69
2023-03-20T11:31:05.383Z,12.50
2023-03-20T11:36:37.665Z,12.42
2023-03-20T11:42:01.983Z,12.43
2023-03-20T11:47:26.522Z,12.44
2023-03-20T11:52:47.509Z,12.48
2023-03-20T11:58:16.973Z,12.56
2023-03-20T12:03:55.471Z,12.60
2023-03-20T12:09:45.983Z,12.67
2023-03-20T12:15:12.982Z,12.95
2023-03-20T12:20:44.302Z,13.03
2023-03-20T12:26:15.660Z,13.07
2023-03-20T12:31:46.107Z,13.08
2023-03-20T12:37:13.340Z,13.06
2023-03-20T12:42:55.302Z,13.06
2023-03-20T12:48:41.323Z,13.17
2023-03-20T12:54:19.856Z,13.13
2023-03-20T12:59:55.544Z,13.02
2023-03-20T13:05:40.746Z,12.88
2023-03-20T13:11:14.232Z,12.64
2023-03-20T13:16:45.984Z,12.40
2023-03-20T13:22:15.382Z,12.19
2023-03-20T13:27:49.974Z,11.94
2023-03-20T13:33:52.401Z,11.82
2023-03-20T13:39:25.324Z,11.67
2023-03-20T13:44:48.423Z,11.56
2023-03-20T13:50:15.303Z,11.55
2023-03-20T13:55:54.148Z,11.67
2023-03-20T14:01:23.609Z,11.79
2023-03-20T14:06:54.334Z,12.04
2023-03-20T14:12:15.699Z,12.14
2023-03-20T14:17:44.338Z,12.23
2023-03-20T14:23:07.394Z,12.26
2023-03-20T14:28:34.092Z,12.27
2023-03-20T14:34:08.899Z,12.24
2023-03-20T14:39:32.373Z,12.29
2023-03-20T14:45:30.972Z,12.29
2023-03-20T14:51:07.113Z,12.28
2023-03-20T14:56:33.326Z,12.31
2023-03-20T15:01:54.892Z,12.30
2023-03-20T15:07:21.655Z,12.28
2023-03-20T15:12:43.692Z,12.35
2023-03-20T15:18:14.403Z,12.32
2023-03-20T15:23:35.631Z,12.28
2023-03-20T15:29:11.096Z,12.25
2023-03-20T15:34:33.792Z,12.27
2023-03-20T15:39:56.769Z,12.24
2023-03-20T15:45:26.181Z,12.27
2023-03-20T15:50:53.644Z,12.25
2023-03-20T15:56:20.204Z,12.24
2023-03-20T16:01:41.231Z,12.18
2023-03-20T16:07:03.249Z,12.17
2023-03-20T16:12:24.300Z,12.15
2023-03-20T16:17:46.484Z,12.19
2023-03-20T16:23:09.606Z,12.13
2023-03-20T16:28:30.920Z,12.19
2023-03-20T16:33:52.834Z,12.14
2023-03-20T16:39:18.946Z,12.04
2023-03-20T16:44:41.953Z,11.98
2023-03-20T16:50:05.844Z,11.94
2023-03-20T16:55:31.521Z,11.90
2023-03-20T17:00:59.896Z,11.82
2023-03-20T17:06:23.745Z,11.72
2023-03-20T17:11:51.270Z,11.64
2023-03-20T17:17:19.460Z,11.53
2023-03-20T17:22:40.504Z,11.52
2023-03-20T17:28:01.162Z,11.52
2023-03-20T17:33:22.161Z,11.56
2023-03-20T17:38:42.818Z,11.55
2023-03-20T17:44:04.058Z,11.62
2023-03-20T17:49:27.418Z,11.74
2023-03-20T17:54:48.457Z,11.89
2023-03-20T18:00:19.748Z,11.99
2023-03-20T18:05:40.798Z,11.97
2023-03-20T18:11:01.843Z,11.89
2023-03-20T18:16:25.487Z,11.64
2023-03-20T18:21:46.391Z,11.43
2023-03-20T18:27:07.574Z,11.38
2023-03-20T18:32:28.721Z,11.44
2023-03-20T18:37:49.354Z,11.44
2023-03-20T18:43:11.191Z,11.43
2023-03-20T18:48:32.911Z,11.30
2023-03-20T18:53:53.828Z,11.29
2023-03-20T18:59:14.674Z,11.22
2023-03-20T19:04:35.474Z,11.18
2023-03-20T19:09:56.242Z,11.05
2023-03-20T19:15:17.009Z,10.97
2023-03-20T19:20:44.177Z,10.91
2023-03-20T19:26:13.122Z,10.85
2023-03-20T19:31:34.153Z,10.87
2023-03-20T19:36:55.066Z,10.72
2023-03-20T19:42:47.525Z,10.64
2023-03-20T19:47:57.563Z,10.54
2023-03-20T19:53:21.593Z,10.48
2023-03-20T19:58:43.312Z,10.45
2023-03-20T20:04:04.304Z,10.41
2023-03-20T20:09:24.893Z,10.42
2023-03-20T20:14:46.548Z,10.41
2023-03-20T20:20:09.667Z,10.43
2023-03-20T20:25:31.078Z,10.46
2023-03-20T20:30:55.623Z,10.46
2023-03-20T20:41:57.473Z,10.45
2023-03-20T20:47:18.361Z,10.48
2023-03-20T20:52:41.681Z,10.50
2023-03-20T20:58:04.068Z,10.48
2023-03-20T21:03:25.447Z,10.51
2023-03-20T21:08:46.371Z,10.56
2023-03-20T21:14:07.365Z,10.60
2023-03-20T21:19:34.784Z,10.56
2023-03-20T21:25:13.035Z,10.55
2023-03-20T21:30:36.025Z,10.51
2023-03-20T21:35:56.794Z,10.55
2023-03-20T21:41:17.645Z,10.42
2023-03-20T22:04:37.613Z,10.30
2023-03-20T22:21:37.041Z,10.24
2023-03-20T22:27:32.540Z,10.12
2023-03-20T22:38:34.640Z,10.15
2023-03-20T22:44:24.849Z,10.11
2023-03-20T22:49:09.324Z,10.15
2023-03-20T22:54:30.407Z,10.07
2023-03-20T22:59:51.229Z,10.09
2023-03-20T23:05:12.406Z,10.07
2023-03-20T23:10:33.469Z,10.07
2023-03-20T23:15:54.552Z,9.95
2023-03-20T23:21:15.157Z,9.96
2023-03-20T23:26:35.895Z,10.01
2023-03-20T23:31:56.597Z,10.05
2023-03-20T23:37:17.637Z,9.95
2023-03-20T23:42:38.638Z,9.82
2023-03-20T23:47:59.418Z,9.74
2023-03-20T23:53:21.174Z,9.68
2023-03-20T23:58:55.524Z,9.79
